Time;durP1;ratioP1;P1;durP2;ratioP2;P2;SDS_P1;SDS_P2;PMS_P1;PMS_P2;Temp;Humidity;BMP_temperature;BMP_pressure;BME280_temperature;BME280_humidity;BME280_pressure;Samples;Min_cycle;Max_cycle;Signal;HPM_P1;HPM_P2
2022/08/12 00:45:08;;;;;;;0.52;0.32;;;21.60;99.90;;;;;;5037902;28;20132;-67
2022/08/12 00:47:36;;;;;;;0.30;0.25;;;21.60;99.90;;;;;;5027161;28;20053;-67
2022/08/12 00:50:03;;;;;;;0.20;0.20;;;21.60;99.90;;;;;;5037878;28;20068;-67
2022/08/12 00:52:28;;;;;;;0.00;0.00;;;21.50;99.90;;;;;;5032251;28;20394;-67
2022/08/12 00:54:57;;;;;;;0.15;0.15;;;21.50;99.90;;;;;;5044027;28;20090;-67
2022/08/12 00:57:46;;;;;;;3.65;0.65;;;21.50;99.90;;;;;;5041540;28;20574;-67
2022/08/12 01:00:20;;;;;;;0.10;0.10;;;21.50;99.90;;;;;;5041613;28;20060;-67
2022/08/12 01:02:54;;;;;;;0.00;0.00;;;21.40;99.90;;;;;;5045227;28;20061;-67
2022/08/12 01:13:46;;;;;;;0.00;0.00;;;21.50;99.90;;;;;;5043531;28;20068;-67
2022/08/12 01:16:21;;;;;;;0.20;0.20;;;21.40;99.90;;;;;;5049692;28;20053;-67
2022/08/12 01:18:48;;;;;;;0.10;0.10;;;21.40;99.90;;;;;;5039242;28;20049;-67
2022/08/12 01:21:25;;;;;;;0.00;0.00;;;21.40;99.90;;;;;;5038966;28;20052;-67
2022/08/12 01:24:03;;;;;;;0.10;0.10;;;21.30;99.90;;;;;;5049024;28;20040;-67
2022/08/12 01:26:31;;;;;;;0.03;0.03;;;21.30;99.90;;;;;;5040026;28;20456;-67
2022/08/12 01:28:58;;;;;;;0.00;0.00;;;21.40;99.90;;;;;;5044470;28;20045;-66
2022/08/12 01:31:25;;;;;;;0.13;0.13;;;21.40;99.90;;;;;;5045744;28;20045;-67
2022/08/12 01:34:06;;;;;;;0.03;0.03;;;21.30;99.90;;;;;;5046448;28;20112;-67
2022/08/12 01:36:39;;;;;;;0.10;0.10;;;21.30;99.90;;;;;;5029483;28;20060;-67
2022/08/12 01:39:06;;;;;;;0.63;0.55;;;21.30;99.90;;;;;;5046051;28;20883;-67
2022/08/12 01:41:38;;;;;;;0.20;0.20;;;21.30;99.90;;;;;;5047649;28;20037;-68
2022/08/12 01:44:07;;;;;;;3.93;0.50;;;21.30;99.90;;;;;;5033417;28;20045;-67
2022/08/12 01:46:48;;;;;;;0.00;0.00;;;21.30;99.90;;;;;;5043457;28;20116;-67
2022/08/12 01:49:39;;;;;;;0.00;0.00;;;21.30;99.90;;;;;;5042277;28;20049;-67
2022/08/12 01:52:08;;;;;;;0.40;0.30;;;21.20;99.90;;;;;;5041203;28;20053;-67
2022/08/12 01:54:41;;;;;;;0.30;0.30;;;21.20;99.90;;;;;;5037279;28;20088;-68
2022/08/12 01:57:23;;;;;;;3.92;1.10;;;21.20;99.90;;;;;;5040050;28;20052;-67
2022/08/12 02:00:11;;;;;;;1.00;0.17;;;21.20;99.90;;;;;;5037643;28;20102;-68
2022/08/12 02:02:39;;;;;;;0.90;0.15;;;21.20;99.90;;;;;;5034311;28;20077;-67
2022/08/12 02:11:46;;;;;;;0.45;0.13;;;21.20;99.90;;;;;;5029832;28;20046;-67
2022/08/12 02:14:47;;;;;;;0.20;0.20;;;21.20;99.90;;;;;;5038762;28;20458;-67
2022/08/12 02:17:36;;;;;;;0.15;0.15;;;21.10;99.90;;;;;;5034644;28;20053;-67
2022/08/12 02:20:30;;;;;;;0.40;0.38;;;21.10;99.90;;;;;;5041863;28;20059;-67
2022/08/12 02:22:56;;;;;;;0.00;0.00;;;21.10;99.90;;;;;;5050948;28;20045;-67
2022/08/12 02:25:28;;;;;;;2.83;0.25;;;21.10;99.90;;;;;;5044267;28;20041;-67
2022/08/12 02:27:55;;;;;;;0.22;0.22;;;21.10;99.90;;;;;;5046243;28;20045;-67
2022/08/12 02:30:30;;;;;;;0.32;0.32;;;21.10;99.90;;;;;;5036767;28;20042;-67
2022/08/12 02:32:58;;;;;;;0.45;0.32;;;21.10;99.90;;;;;;5062596;28;20500;-67
2022/08/12 02:35:26;;;;;;;0.03;0.03;;;21.10;99.90;;;;;;5040330;28;20055;-67
2022/08/12 02:37:55;;;;;;;0.52;0.52;;;21.10;99.90;;;;;;5057166;28;20053;-67
2022/08/12 02:40:22;;;;;;;0.10;0.10;;;21.10;99.90;;;;;;5046408;28;20036;-67
2022/08/12 02:42:58;;;;;;;3.83;1.60;;;21.10;99.90;;;;;;5053916;28;20408;-67
2022/08/12 02:46:10;;;;;;;0.32;0.22;;;21.00;99.90;;;;;;5036688;28;20037;-67
2022/08/12 02:49:03;;;;;;;0.20;0.20;;;21.00;99.90;;;;;;5039319;28;20052;-67
2022/08/12 02:51:35;;;;;;;0.20;0.20;;;21.00;99.90;;;;;;5030454;28;20033;-68
2022/08/12 02:54:04;;;;;;;0.85;0.28;;;20.90;99.90;;;;;;5030844;28;20041;-67
2022/08/12 02:56:31;;;;;;;0.63;0.63;;;20.90;99.90;;;;;;5041657;28;20126;-67
2022/08/12 02:58:58;;;;;;;0.20;0.20;;;20.90;99.90;;;;;;5037513;28;20040;-68
2022/08/12 03:01:32;;;;;;;0.35;0.35;;;20.90;99.90;;;;;;5042699;28;20049;-68
2022/08/12 03:04:06;;;;;;;0.32;0.32;;;20.90;99.90;;;;;;5040454;28;20045;-68
2022/08/12 03:06:38;;;;;;;0.35;0.35;;;20.90;99.90;;;;;;5044818;28;20053;-68
2022/08/12 03:09:06;;;;;;;0.20;0.20;;;20.90;99.90;;;;;;5032827;28;20164;-68
2022/08/12 03:11:57;;;;;;;0.10;0.10;;;20.80;99.90;;;;;;5043164;28;20048;-68
2022/08/12 03:14:26;;;;;;;0.00;0.00;;;20.80;99.90;;;;;;5046268;28;20547;-68
2022/08/12 03:17:07;;;;;;;0.10;0.10;;;20.80;99.90;;;;;;5040332;28;20103;-68
2022/08/12 03:19:32;;;;;;;0.25;0.25;;;20.80;99.90;;;;;;5036407;28;20052;-68
2022/08/12 03:22:11;;;;;;;0.10;0.10;;;20.70;99.90;;;;;;5033324;28;20040;-68
2022/08/12 03:24:42;;;;;;;2.58;0.35;;;20.70;99.90;;;;;;5044091;28;20037;-68
2022/08/12 03:27:10;;;;;;;0.00;0.00;;;20.70;99.90;;;;;;5031199;28;20104;-68
2022/08/12 03:29:37;;;;;;;0.63;0.50;;;20.70;99.90;;;;;;5040688;28;20101;-68
2022/08/12 03:32:04;;;;;;;0.00;0.00;;;20.70;99.90;;;;;;5032307;28;20099;-68
2022/08/12 03:34:34;;;;;;;0.10;0.10;;;20.70;99.90;;;;;;5060263;28;20078;-68
2022/08/12 03:37:04;;;;;;;0.20;0.20;;;20.70;99.90;;;;;;5043323;28;20054;-68
2022/08/12 03:42:24;;;;;;;0.17;0.17;;;20.70;99.90;;;;;;5045527;28;20060;-69
2022/08/12 04:01:56;;;;;;;0.10;0.10;;;20.50;99.90;;;;;;5034816;28;20057;-68
2022/08/12 04:04:32;;;;;;;0.17;0.17;;;20.50;99.90;;;;;;5036581;28;20045;-68
2022/08/12 04:07:06;;;;;;;0.20;0.20;;;20.50;99.90;;;;;;5045793;28;20140;-68
2022/08/12 04:09:32;;;;;;;0.10;0.10;;;20.50;99.90;;;;;;5040401;28;20140;-69
2022/08/12 04:14:42;;;;;;;0.10;0.10;;;20.40;99.90;;;;;;5039466;28;20049;-68
2022/08/12 04:17:08;;;;;;;0.03;0.03;;;20.40;99.90;;;;;;5045768;28;20049;-68
2022/08/12 04:19:35;;;;;;;0.70;0.68;;;20.40;99.90;;;;;;5044594;28;20037;-68
2022/08/12 04:22:01;;;;;;;2.20;0.43;;;20.40;99.90;;;;;;5033191;28;20075;-69
2022/08/12 04:24:27;;;;;;;0.95;0.35;;;20.40;99.90;;;;;;5040845;28;20124;-68
2022/08/12 04:26:54;;;;;;;2.53;0.73;;;20.40;99.90;;;;;;5036456;28;20049;-68
2022/08/12 04:29:21;;;;;;;0.38;0.38;;;20.40;99.90;;;;;;5033397;28;20064;-68
2022/08/12 04:31:48;;;;;;;0.00;0.00;;;20.40;99.90;;;;;;5042306;28;20037;-68
2022/08/12 04:34:15;;;;;;;0.20;0.20;;;20.40;99.90;;;;;;5043549;28;20120;-68
2022/08/12 04:36:41;;;;;;;0.15;0.15;;;20.40;99.90;;;;;;5052200;28;20195;-68
2022/08/12 04:39:09;;;;;;;0.30;0.30;;;20.40;99.90;;;;;;5047671;28;20041;-68
2022/08/12 04:41:36;;;;;;;0.00;0.00;;;20.40;99.90;;;;;;5049884;28;20037;-68
2022/08/12 04:44:03;;;;;;;0.35;0.35;;;20.40;99.90;;;;;;5035992;28;20053;-68
2022/08/12 04:46:29;;;;;;;5.78;0.35;;;20.40;99.90;;;;;;5050095;28;20500;-68
2022/08/12 04:48:54;;;;;;;0.17;0.17;;;20.40;99.90;;;;;;5042906;28;20041;-68
2022/08/12 04:51:22;;;;;;;0.08;0.08;;;20.40;99.90;;;;;;5041960;28;20076;-68
2022/08/12 04:53:48;;;;;;;0.28;0.20;;;20.40;99.90;;;;;;5041961;28;20055;-67
2022/08/12 04:56:14;;;;;;;0.38;0.20;;;20.40;99.90;;;;;;5045516;28;20056;-68
2022/08/12 04:58:40;;;;;;;0.80;0.77;;;20.40;99.90;;;;;;5048121;28;20063;-68
2022/08/12 05:01:07;;;;;;;0.03;0.03;;;20.50;99.90;;;;;;5031830;28;20049;-68
2022/08/12 05:03:36;;;;;;;0.00;0.00;;;20.50;99.90;;;;;;5035840;28;20057;-68
2022/08/12 05:06:03;;;;;;;0.00;0.00;;;20.50;99.90;;;;;;5049251;28;20060;-68
2022/08/12 05:08:30;;;;;;;0.00;0.00;;;20.50;99.90;;;;;;5040287;28;20451;-68
2022/08/12 05:10:55;;;;;;;0.25;0.25;;;20.50;99.90;;;;;;5034789;28;20052;-68
2022/08/12 05:13:28;;;;;;;0.40;0.40;;;20.60;99.90;;;;;;5033682;28;20038;-68
2022/08/12 05:15:53;;;;;;;0.20;0.20;;;20.60;99.90;;;;;;5062902;28;20664;-68
2022/08/12 05:18:20;;;;;;;0.05;0.05;;;20.60;99.90;;;;;;5035566;28;20053;-68
2022/08/12 05:20:47;;;;;;;1.15;1.02;;;20.60;99.90;;;;;;5045686;28;20396;-68
2022/08/12 05:23:12;;;;;;;0.47;0.20;;;20.60;99.90;;;;;;5048636;28;20041;-68
2022/08/12 05:25:43;;;;;;;0.00;0.00;;;20.60;99.90;;;;;;5048569;28;20048;-68
2022/08/12 05:28:09;;;;;;;0.10;0.10;;;20.60;99.90;;;;;;5035772;28;20106;-68
2022/08/12 05:30:35;;;;;;;0.00;0.00;;;20.60;99.90;;;;;;5045875;28;20088;-68
2022/08/12 05:33:05;;;;;;;0.00;0.00;;;20.60;99.90;;;;;;5046098;28;20385;-68
2022/08/12 05:35:37;;;;;;;0.85;0.47;;;20.70;99.90;;;;;;5039550;28;20057;-68
2022/08/12 05:40:47;;;;;;;0.20;0.20;;;20.70;99.90;;;;;;5046247;28;20527;-68
2022/08/12 05:43:13;;;;;;;0.00;0.00;;;20.70;99.90;;;;;;5034142;28;20041;-68
2022/08/12 05:45:39;;;;;;;1.42;1.02;;;20.80;99.90;;;;;;5045533;28;20041;-68
2022/08/12 05:48:05;;;;;;;0.38;0.38;;;20.80;99.90;;;;;;5046970;28;20690;-68
2022/08/12 05:50:31;;;;;;;0.10;0.10;;;20.80;99.90;;;;;;5044343;28;20037;-68
2022/08/12 05:52:57;;;;;;;0.22;0.22;;;20.80;99.90;;;;;;5041766;28;20574;-69
2022/08/12 05:55:22;;;;;;;0.20;0.20;;;20.80;99.90;;;;;;5034884;28;20033;-68
2022/08/12 05:58:00;;;;;;;0.00;0.00;;;20.90;99.90;;;;;;5038635;28;20037;-68
2022/08/12 06:00:28;;;;;;;0.32;0.32;;;20.90;99.90;;;;;;5043068;28;20040;-69
2022/08/12 06:03:00;;;;;;;0.00;0.00;;;21.00;99.90;;;;;;5033310;28;20505;-69
2022/08/12 06:05:27;;;;;;;0.10;0.10;;;21.00;99.90;;;;;;5063661;28;20101;-69
2022/08/12 06:07:56;;;;;;;0.65;0.38;;;21.00;99.90;;;;;;5049306;28;20044;-69
2022/08/12 06:10:23;;;;;;;0.00;0.00;;;21.10;99.90;;;;;;5032521;28;20049;-68
2022/08/12 06:12:49;;;;;;;0.00;0.00;;;21.10;99.90;;;;;;5030075;28;20041;-69
2022/08/12 06:15:15;;;;;;;0.10;0.10;;;21.10;99.90;;;;;;5045511;28;20040;-67
2022/08/12 06:17:41;;;;;;;0.00;0.00;;;21.10;99.90;;;;;;5045802;28;20603;-67
2022/08/12 06:20:12;;;;;;;0.00;0.00;;;21.20;99.90;;;;;;5030056;28;20112;-67
2022/08/12 06:22:41;;;;;;;0.00;0.00;;;21.20;99.90;;;;;;5047481;28;20396;-67
2022/08/12 06:25:08;;;;;;;0.20;0.20;;;21.20;99.90;;;;;;5046274;28;20045;-67
2022/08/12 06:27:41;;;;;;;0.00;0.00;;;21.20;99.90;;;;;;5028398;28;20045;-67
2022/08/12 06:30:08;;;;;;;0.10;0.10;;;21.30;99.90;;;;;;5037254;28;20102;-67
2022/08/12 06:32:34;;;;;;;0.00;0.00;;;21.30;99.90;;;;;;5028582;28;20076;-67
2022/08/12 06:34:59;;;;;;;0.00;0.00;;;21.40;99.90;;;;;;5028818;28;20077;-67
2022/08/12 06:37:25;;;;;;;0.08;0.08;;;21.40;99.90;;;;;;5041612;28;20378;-67
2022/08/12 06:39:50;;;;;;;0.00;0.00;;;21.40;99.90;;;;;;5043106;28;20041;-67
2022/08/12 06:45:00;;;;;;;0.00;0.00;;;21.50;99.90;;;;;;5048141;28;20048;-67
2022/08/12 06:47:26;;;;;;;0.30;0.30;;;21.50;99.90;;;;;;5049055;28;20044;-68
2022/08/12 06:49:51;;;;;;;0.10;0.10;;;21.60;99.90;;;;;;5038098;28;20098;-67
2022/08/12 06:52:21;;;;;;;0.00;0.00;;;21.60;99.90;;;;;;5038704;28;20048;-67
2022/08/12 06:54:47;;;;;;;0.00;0.00;;;21.70;99.90;;;;;;5045200;28;20052;-68
2022/08/12 06:57:12;;;;;;;0.00;0.00;;;21.70;99.90;;;;;;5048099;28;20052;-67
2022/08/12 06:59:39;;;;;;;0.00;0.00;;;21.80;99.90;;;;;;5038014;28;20038;-67
2022/08/12 07:02:07;;;;;;;0.00;0.00;;;21.80;99.90;;;;;;5039765;28;20412;-67
2022/08/12 07:04:34;;;;;;;0.40;0.22;;;21.90;99.90;;;;;;5048078;28;20052;-67
2022/08/12 07:06:59;;;;;;;0.63;0.63;;;21.90;99.90;;;;;;5046385;28;20106;-67
2022/08/12 07:09:26;;;;;;;0.00;0.00;;;21.90;99.90;;;;;;5040525;28;20752;-67
2022/08/12 07:11:52;;;;;;;0.10;0.10;;;22.00;99.90;;;;;;5028053;28;20055;-67
2022/08/12 07:14:17;;;;;;;0.00;0.00;;;22.00;99.90;;;;;;5028330;28;20045;-67
2022/08/12 07:16:55;;;;;;;0.05;0.05;;;22.10;99.90;;;;;;5027094;28;20045;-67
2022/08/12 07:19:21;;;;;;;0.00;0.00;;;22.10;99.90;;;;;;5027596;28;20053;-66
2022/08/12 07:21:46;;;;;;;0.00;0.00;;;22.20;99.90;;;;;;5030911;28;20393;-67
2022/08/12 07:24:13;;;;;;;0.28;0.28;;;22.20;99.90;;;;;;5030646;28;20408;-67
2022/08/12 07:26:40;;;;;;;0.05;0.05;;;22.20;99.90;;;;;;5063585;28;20114;-67
2022/08/12 07:29:08;;;;;;;0.00;0.00;;;22.30;99.90;;;;;;5037145;28;21761;-67
2022/08/12 07:31:37;;;;;;;1.40;0.17;;;22.30;99.90;;;;;;5027625;28;20057;-67
2022/08/12 07:34:04;;;;;;;0.00;0.00;;;22.40;99.90;;;;;;5038312;28;20052;-67
2022/08/12 07:36:32;;;;;;;0.00;0.00;;;22.40;99.90;;;;;;5042735;28;20063;-67
2022/08/12 07:38:57;;;;;;;0.00;0.00;;;22.40;99.90;;;;;;5027864;28;20041;-67
2022/08/12 07:41:26;;;;;;;0.00;0.00;;;22.50;99.90;;;;;;5029212;28;20068;-67
2022/08/12 07:43:53;;;;;;;0.00;0.00;;;22.50;99.90;;;;;;5047849;28;20041;-67
2022/08/12 07:46:30;;;;;;;0.13;0.13;;;22.60;99.90;;;;;;5037624;28;20057;-68
2022/08/12 07:48:58;;;;;;;0.00;0.00;;;22.60;99.90;;;;;;5036884;28;20136;-67
2022/08/12 07:51:25;;;;;;;0.00;0.00;;;22.70;99.90;;;;;;5036403;28;20040;-68
2022/08/12 07:53:51;;;;;;;0.00;0.00;;;22.70;99.90;;;;;;5027820;28;20099;-67
2022/08/12 07:56:17;;;;;;;4.18;2.00;;;22.80;99.90;;;;;;5039150;28;20045;-67
2022/08/12 07:58:43;;;;;;;0.00;0.00;;;22.80;99.90;;;;;;5032654;28;20041;-68
2022/08/12 08:01:14;;;;;;;0.10;0.10;;;22.80;99.90;;;;;;5047468;28;20059;-68
2022/08/12 08:04:54;;;;;;;0.10;0.10;;;22.90;99.90;;;;;;5045580;28;20047;-68
2022/08/12 08:06:30;;;;;;;0.00;0.00;;;22.90;99.90;;;;;;5047423;28;20057;-68
2022/08/12 08:08:56;;;;;;;0.00;0.00;;;23.00;99.90;;;;;;5052507;28;20455;-68
2022/08/12 08:14:09;;;;;;;0.00;0.00;;;23.10;99.90;;;;;;5035441;28;20053;-68
2022/08/12 08:16:37;;;;;;;0.00;0.00;;;23.10;99.90;;;;;;5032208;28;20056;-68
2022/08/12 08:19:03;;;;;;;0.00;0.00;;;23.10;99.90;;;;;;5031317;28;20750;-68
2022/08/12 08:21:32;;;;;;;0.00;0.00;;;23.20;99.90;;;;;;5034571;28;20498;-68
2022/08/12 08:24:14;;;;;;;0.00;0.00;;;23.20;99.90;;;;;;5051259;28;20041;-67
2022/08/12 08:26:42;;;;;;;0.00;0.00;;;23.30;99.90;;;;;;5034209;28;20071;-68
2022/08/12 08:29:07;;;;;;;0.03;0.03;;;23.30;99.90;;;;;;5046891;28;20049;-68
2022/08/12 08:31:34;;;;;;;0.03;0.03;;;23.40;99.90;;;;;;5049688;28;20060;-68
2022/08/12 08:34:00;;;;;;;0.00;0.00;;;23.50;99.90;;;;;;5038327;28;20069;-68
2022/08/12 08:36:26;;;;;;;0.00;0.00;;;23.60;99.90;;;;;;5049679;28;20033;-68
2022/08/12 08:38:53;;;;;;;0.00;0.00;;;23.60;99.90;;;;;;5040455;28;20034;-68
2022/08/12 08:44:03;;;;;;;0.00;0.00;;;23.80;99.90;;;;;;5045338;28;20121;-68
2022/08/12 08:46:31;;;;;;;0.00;0.00;;;23.90;99.90;;;;;;5031467;28;20387;-68
2022/08/12 08:49:00;;;;;;;0.25;0.25;;;24.00;99.90;;;;;;5031237;28;20041;-68
2022/08/12 08:51:26;;;;;;;0.00;0.00;;;24.00;99.90;;;;;;5031712;28;20056;-68
2022/08/12 08:53:52;;;;;;;0.00;0.00;;;24.10;99.90;;;;;;5043982;28;20044;-68
2022/08/12 08:56:18;;;;;;;0.00;0.00;;;24.20;99.90;;;;;;5030626;28;20077;-68
2022/08/12 08:58:44;;;;;;;0.00;0.00;;;24.30;99.90;;;;;;5051412;28;20122;-69
2022/08/12 09:01:10;;;;;;;0.43;0.43;;;24.40;99.90;;;;;;5050781;28;20787;-68
2022/08/12 09:03:36;;;;;;;0.08;0.08;;;24.50;99.90;;;;;;5039875;28;20576;-68
2022/08/12 09:06:02;;;;;;;0.15;0.13;;;24.60;99.90;;;;;;5031615;28;20128;-68
2022/08/12 09:08:28;;;;;;;0.20;0.20;;;24.70;99.90;;;;;;5050938;28;20041;-67
2022/08/12 09:10:57;;;;;;;0.00;0.00;;;24.80;99.90;;;;;;5061680;28;20102;-68
2022/08/12 09:13:33;;;;;;;0.08;0.08;;;24.90;99.90;;;;;;5032889;28;20037;-68
2022/08/12 09:16:00;;;;;;;0.10;0.10;;;25.00;99.90;;;;;;5030901;28;20129;-68
2022/08/12 09:18:26;;;;;;;0.00;0.00;;;25.10;99.90;;;;;;5038694;28;20417;-68
2022/08/12 09:20:52;;;;;;;0.00;0.00;;;25.30;99.90;;;;;;5031123;28;20052;-68
2022/08/12 09:23:18;;;;;;;0.00;0.00;;;25.50;99.90;;;;;;5047943;28;20393;-67
2022/08/12 09:25:44;;;;;;;0.38;0.38;;;25.80;99.90;;;;;;5050345;28;20048;-68
2022/08/12 09:28:10;;;;;;;0.20;0.20;;;26.00;99.90;;;;;;5042826;28;20396;-68
2022/08/12 09:30:38;;;;;;;0.00;0.00;;;26.20;99.90;;;;;;5030085;28;20469;-68
2022/08/12 09:33:05;;;;;;;0.00;0.00;;;26.50;99.90;;;;;;5030670;28;20107;-68
2022/08/12 09:35:36;;;;;;;0.00;0.00;;;26.70;99.90;;;;;;5028852;28;20056;-68
2022/08/12 09:38:01;;;;;;;0.10;0.10;;;27.00;99.90;;;;;;5029245;28;20049;-68
2022/08/12 09:40:28;;;;;;;0.00;0.00;;;27.30;99.90;;;;;;5030759;28;20528;-68
2022/08/12 09:45:48;;;;;;;0.00;0.00;;;27.70;99.90;;;;;;5029051;28;20049;-68
2022/08/12 09:48:16;;;;;;;0.10;0.10;;;27.90;99.90;;;;;;5030619;28;20383;-68
2022/08/12 09:50:44;;;;;;;0.00;0.00;;;28.20;99.90;;;;;;5036029;28;20155;-68
2022/08/12 09:53:15;;;;;;;0.00;0.00;;;28.60;99.90;;;;;;5034784;28;20481;-68
2022/08/12 09:55:47;;;;;;;0.00;0.00;;;28.70;99.90;;;;;;5033887;28;20053;-67
2022/08/12 09:58:29;;;;;;;0.00;0.00;;;28.80;99.90;;;;;;5039088;28;20137;-67
2022/08/12 10:01:03;;;;;;;0.00;0.00;;;28.80;99.90;;;;;;5046909;28;20049;-68
2022/08/12 10:03:35;;;;;;;0.17;0.10;;;29.30;99.60;;;;;;5039133;28;20140;-67
2022/08/12 10:06:06;;;;;;;0.00;0.00;;;29.50;99.80;;;;;;5037177;28;20492;-67
2022/08/12 10:08:33;;;;;;;0.10;0.10;;;29.60;98.60;;;;;;5050984;28;20044;-66
2022/08/12 10:13:47;;;;;;;0.45;0.45;;;30.10;98.20;;;;;;5045417;28;20091;-68
2022/08/12 10:16:21;;;;;;;0.00;0.00;;;30.30;97.20;;;;;;5048731;28;20072;-68
2022/08/12 10:18:48;;;;;;;0.00;0.00;;;30.60;96.90;;;;;;5045383;28;20393;-68
2022/08/12 10:21:16;;;;;;;0.28;0.28;;;30.60;95.80;;;;;;5047644;28;20106;-68
2022/08/12 10:23:44;;;;;;;0.10;0.10;;;30.70;95.60;;;;;;5039512;28;20053;-68
2022/08/12 10:31:40;;;;;;;0.00;0.00;;;31.30;95.70;;;;;;5029542;28;20414;-68
2022/08/12 10:34:09;;;;;;;0.57;0.52;;;31.20;95.10;;;;;;5045043;28;20370;-68
2022/08/12 10:36:38;;;;;;;0.47;0.47;;;31.30;94.50;;;;;;5040612;28;20094;-68
2022/08/12 10:39:06;;;;;;;0.00;0.00;;;31.40;94.10;;;;;;5029626;28;20170;-68
2022/08/12 10:44:16;;;;;;;0.20;0.10;;;31.50;94.20;;;;;;5040183;28;20048;-67
2022/08/12 10:46:44;;;;;;;0.00;0.00;;;31.60;93.60;;;;;;5029507;28;20037;-68
2022/08/12 10:49:11;;;;;;;0.00;0.00;;;31.70;93.10;;;;;;5037093;28;20048;-67
2022/08/12 10:51:37;;;;;;;0.10;0.10;;;31.80;92.80;;;;;;5046833;28;20424;-68
2022/08/12 10:54:03;;;;;;;0.47;0.40;;;31.90;92.90;;;;;;5040263;28;20652;-68
2022/08/12 10:56:31;;;;;;;0.00;0.00;;;32.00;92.70;;;;;;5027982;28;20053;-68
2022/08/12 10:58:57;;;;;;;0.10;0.10;;;32.10;92.50;;;;;;5028870;28;20057;-68
2022/08/12 11:01:23;;;;;;;0.00;0.00;;;32.00;92.20;;;;;;5027998;28;20046;-68
2022/08/12 11:03:49;;;;;;;0.20;0.20;;;32.00;91.40;;;;;;5030325;28;20054;-67
2022/08/12 11:06:14;;;;;;;0.10;0.08;;;32.00;91.00;;;;;;5028928;28;20060;-68
2022/08/12 11:08:40;;;;;;;0.00;0.00;;;32.10;92.00;;;;;;5036584;28;20064;-68
2022/08/12 11:11:07;;;;;;;0.00;0.00;;;32.20;91.90;;;;;;5039824;28;20049;-68
2022/08/12 11:13:37;;;;;;;0.00;0.00;;;32.10;90.00;;;;;;5028667;28;20401;-69
2022/08/12 11:16:05;;;;;;;0.00;0.00;;;32.10;91.30;;;;;;5028266;28;20088;-70
2022/08/12 11:18:31;;;;;;;0.10;0.10;;;32.20;91.00;;;;;;5027786;28;20045;-67
2022/08/12 11:20:58;;;;;;;0.00;0.00;;;32.10;90.80;;;;;;5035451;28;20152;-69
2022/08/12 11:23:24;;;;;;;0.10;0.10;;;32.30;91.20;;;;;;5048050;28;20045;-69
2022/08/12 11:25:50;;;;;;;0.22;0.22;;;32.20;90.40;;;;;;5048625;28;20706;-69
2022/08/12 11:28:17;;;;;;;0.00;0.00;;;32.20;90.70;;;;;;5033752;28;20420;-69
2022/08/12 11:30:43;;;;;;;0.45;0.32;;;32.30;91.10;;;;;;5027776;28;20412;-69
2022/08/12 11:33:09;;;;;;;0.10;0.10;;;32.50;91.00;;;;;;5030401;28;20033;-69
2022/08/12 11:35:42;;;;;;;0.00;0.00;;;32.40;90.50;;;;;;5028497;28;20038;-68
2022/08/12 11:38:08;;;;;;;0.00;0.00;;;32.50;90.30;;;;;;5044584;28;20053;-69
2022/08/12 11:40:34;;;;;;;0.00;0.00;;;32.50;90.50;;;;;;5044246;28;20109;-69
2022/08/12 11:42:59;;;;;;;0.00;0.00;;;32.70;90.60;;;;;;5035542;28;20041;-69
2022/08/12 11:45:26;;;;;;;0.00;0.00;;;32.90;90.20;;;;;;5027764;28;20053;-69
2022/08/12 11:47:53;;;;;;;0.00;0.00;;;32.90;90.20;;;;;;5031699;28;20049;-69
2022/08/12 11:50:20;;;;;;;0.10;0.10;;;33.00;89.40;;;;;;5028093;28;20247;-69
2022/08/12 11:52:50;;;;;;;0.00;0.00;;;32.80;89.30;;;;;;5059094;28;20056;-69
2022/08/12 11:55:16;;;;;;;0.00;0.00;;;32.90;89.50;;;;;;5042743;28;20051;-69
2022/08/12 11:57:54;;;;;;;0.00;0.00;;;33.20;90.30;;;;;;5047918;28;20056;-69
2022/08/12 12:00:20;;;;;;;0.00;0.00;;;33.20;89.60;;;;;;5046611;28;20049;-69
2022/08/12 12:02:46;;;;;;;0.03;0.00;;;33.10;89.30;;;;;;5028031;28;20501;-69
2022/08/12 12:05:14;;;;;;;0.00;0.00;;;33.10;86.90;;;;;;5029877;28;20052;-68
2022/08/12 12:07:44;;;;;;;0.10;0.10;;;33.20;87.60;;;;;;5034109;28;20041;-68
2022/08/12 12:10:11;;;;;;;0.00;0.00;;;33.00;86.60;;;;;;5045999;28;20488;-69
2022/08/12 12:12:37;;;;;;;1.55;0.65;;;33.20;89.10;;;;;;5040978;28;20121;-68
2022/08/12 12:15:05;;;;;;;1.17;0.32;;;33.10;90.20;;;;;;5028066;28;20818;-69
2022/08/12 12:17:35;;;;;;;0.15;0.15;;;33.10;90.70;;;;;;5027328;28;20053;-69
2022/08/12 12:20:01;;;;;;;0.10;0.10;;;33.20;90.90;;;;;;5045126;28;20052;-68
2022/08/12 12:22:27;;;;;;;0.28;0.20;;;33.20;90.00;;;;;;5042733;28;20064;-69
2022/08/12 12:24:52;;;;;;;0.10;0.10;;;33.20;90.40;;;;;;5028122;28;20385;-69
2022/08/12 12:27:21;;;;;;;0.00;0.00;;;33.30;91.00;;;;;;5026918;28;20033;-69
2022/08/12 12:29:47;;;;;;;1.30;0.55;;;33.30;90.20;;;;;;5045693;28;20091;-69
2022/08/12 12:32:13;;;;;;;0.00;0.00;;;33.40;90.00;;;;;;5044107;28;20049;-69
2022/08/12 12:34:39;;;;;;;0.22;0.20;;;33.40;90.10;;;;;;5026981;28;20073;-69
2022/08/12 12:37:05;;;;;;;0.55;0.10;;;33.40;90.30;;;;;;5029910;28;20033;-69
2022/08/12 12:39:30;;;;;;;4.70;1.58;;;33.50;90.00;;;;;;5045166;28;20049;-69
2022/08/12 12:41:56;;;;;;;0.47;0.47;;;33.30;90.00;;;;;;5045481;28;20033;-69
2022/08/12 12:44:21;;;;;;;0.00;0.00;;;33.20;89.40;;;;;;5046533;28;20044;-69
2022/08/12 12:46:47;;;;;;;11.07;2.00;;;33.20;90.80;;;;;;5036468;28;20046;-69
2022/08/12 12:49:13;;;;;;;0.43;0.10;;;33.40;90.60;;;;;;5026964;28;20037;-69
2022/08/12 12:51:39;;;;;;;0.00;0.00;;;33.20;90.50;;;;;;5037223;28;20102;-70
2022/08/12 12:54:04;;;;;;;0.00;0.00;;;33.20;90.70;;;;;;5044283;28;20033;-69
2022/08/12 12:56:30;;;;;;;0.00;0.00;;;33.20;90.60;;;;;;5030304;28;20088;-70
2022/08/12 12:58:56;;;;;;;0.10;0.10;;;33.40;91.00;;;;;;5030583;28;20052;-69
2022/08/12 13:01:25;;;;;;;0.95;0.55;;;33.20;90.90;;;;;;5034074;28;20894;-69
2022/08/12 13:03:57;;;;;;;0.10;0.00;;;33.20;90.70;;;;;;5041489;28;20067;-68
2022/08/12 13:06:25;;;;;;;0.35;0.13;;;33.30;90.80;;;;;;5030373;28;20034;-69
2022/08/12 13:08:54;;;;;;;0.00;0.00;;;33.30;90.50;;;;;;5030719;28;20052;-69
2022/08/12 13:11:21;;;;;;;0.93;0.90;;;33.30;90.70;;;;;;5029808;28;20049;-69
2022/08/12 13:13:51;;;;;;;0.00;0.00;;;33.50;90.60;;;;;;5030980;28;20558;-69
2022/08/12 13:16:19;;;;;;;0.25;0.10;;;33.30;90.60;;;;;;5030491;28;20485;-69
2022/08/12 13:18:46;;;;;;;1.10;0.52;;;33.40;90.90;;;;;;5046101;28;20049;-69
2022/08/12 13:21:12;;;;;;;0.00;0.00;;;33.30;90.80;;;;;;5030465;28;20052;-69
2022/08/12 13:23:38;;;;;;;0.03;0.03;;;33.30;90.40;;;;;;5036862;28;20033;-69
2022/08/12 13:26:05;;;;;;;0.10;0.10;;;33.20;90.60;;;;;;5029794;28;20057;-69
2022/08/12 13:28:31;;;;;;;0.32;0.28;;;33.00;90.70;;;;;;5031642;28;20128;-69
2022/08/12 13:30:58;;;;;;;0.00;0.00;;;33.20;91.10;;;;;;5042152;28;20178;-69
2022/08/12 13:33:25;;;;;;;0.20;0.20;;;33.20;90.80;;;;;;5033014;28;20037;-69
2022/08/12 13:36:02;;;;;;;0.00;0.00;;;33.30;91.00;;;;;;5050803;28;20504;-69
2022/08/12 13:38:39;;;;;;;0.00;0.00;;;33.30;90.60;;;;;;5049841;28;20052;-69
2022/08/12 13:41:31;;;;;;;0.00;0.00;;;33.20;91.40;;;;;;5042128;28;20128;-69
2022/08/12 13:43:56;;;;;;;0.00;0.00;;;33.00;91.00;;;;;;5045341;28;20053;-69
2022/08/12 13:46:21;;;;;;;0.10;0.10;;;33.20;91.10;;;;;;5046694;28;20110;-69
2022/08/12 13:48:47;;;;;;;0.10;0.10;;;33.30;90.70;;;;;;5036115;28;20473;-69
2022/08/12 13:51:13;;;;;;;0.10;0.10;;;33.40;91.60;;;;;;5035447;28;20164;-69
2022/08/12 13:53:39;;;;;;;0.00;0.00;;;33.20;90.90;;;;;;5042581;28;20060;-69
2022/08/12 13:56:04;;;;;;;0.00;0.00;;;33.20;91.50;;;;;;5046217;28;20044;-70
2022/08/12 13:58:30;;;;;;;0.10;0.10;;;32.90;91.00;;;;;;5049715;28;20048;-69
2022/08/12 14:00:56;;;;;;;0.03;0.03;;;33.10;91.20;;;;;;5040868;28;20042;-69
2022/08/12 14:03:23;;;;;;;0.17;0.10;;;33.10;91.30;;;;;;5040912;28;20049;-69
2022/08/12 14:05:49;;;;;;;0.00;0.00;;;33.10;91.10;;;;;;5048480;28;20040;-69
2022/08/12 14:08:15;;;;;;;0.00;0.00;;;33.20;91.00;;;;;;5029638;28;20053;-69
2022/08/12 14:10:50;;;;;;;0.00;0.00;;;33.20;90.90;;;;;;5029833;28;20505;-69
2022/08/12 14:13:18;;;;;;;0.05;0.00;;;33.20;91.00;;;;;;5029604;28;20059;-69
2022/08/12 14:15:47;;;;;;;0.10;0.10;;;33.10;90.30;;;;;;5028247;28;20045;-69
2022/08/12 14:18:27;;;;;;;0.30;0.30;;;32.90;90.30;;;;;;5040665;28;20055;-69
2022/08/12 14:20:57;;;;;;;0.10;0.10;;;32.90;90.70;;;;;;5037608;28;20069;-69
2022/08/12 14:23:25;;;;;;;0.08;0.08;;;32.60;90.50;;;;;;5028913;28;20393;-69
2022/08/12 14:25:52;;;;;;;0.05;0.05;;;32.80;90.30;;;;;;5031722;28;20038;-69
2022/08/12 14:28:19;;;;;;;0.00;0.00;;;32.70;90.00;;;;;;5029498;28;20479;-69
2022/08/12 14:31:01;;;;;;;0.00;0.00;;;32.70;90.70;;;;;;5028980;28;20057;-69
2022/08/12 14:33:30;;;;;;;0.00;0.00;;;32.80;90.50;;;;;;5027422;28;20103;-69
2022/08/12 14:35:56;;;;;;;0.00;0.00;;;32.70;88.50;;;;;;5029291;28;20037;-69
2022/08/12 14:38:31;;;;;;;0.00;0.00;;;32.70;90.10;;;;;;5027861;28;20041;-70
2022/08/12 14:41:00;;;;;;;0.00;0.00;;;32.80;90.30;;;;;;5028639;28;20048;-70
2022/08/12 14:43:28;;;;;;;0.00;0.00;;;32.80;89.50;;;;;;5047402;28;20049;-70